QFA123 LICR-LTFJ
Flight info
| Callsign | QFA123 |
|---|---|
| Flight time | N/A |
| Altitude | 40000 |
| Route | CDC DCT GEMVI DCT LATAN/N0473F390 UL869 KRK UM600 TSL UM603 PEREN UN644 DIGTI UT162 DRAMO |
| Aircraft | A388/J-SADE2E3FGHIJ3J4J5M1RWXY/LB1D1 |
Departure
| Time | 2026-04-21 18:03 |
|---|---|
| Airport | Reggio Calabria Airport (LICR) |
Arrival
| Time | N/A |
|---|---|
| Airport | Istanbul Sabiha Gökçen International Airport (LTFJ) |
| Time | Latitude | Longitude | Altitude | Speed | Heading |
|---|---|---|---|---|---|
| 2026-04-21 16:52 | 38.07318 | 15.65292 | 63 ft | 0 kts | 56° |
| 2026-04-21 17:47 | 38.07314 | 15.65284 | 63 ft | 2 kts | 58° |
| 2026-04-21 17:47 | 38.07310 | 15.65269 | 54 ft | 2 kts | 81° |
| 2026-04-21 17:47 | 38.07315 | 15.65254 | 60 ft | 2 kts | 118° |
| 2026-04-21 17:47 | 38.07323 | 15.65246 | 55 ft | 0 kts | 148° |
| 2026-04-21 17:48 | 38.07321 | 15.65248 | 55 ft | 0 kts | 148° |
| 2026-04-21 17:53 | 38.07308 | 15.65258 | 54 ft | 7 kts | 148° |
| 2026-04-21 17:54 | 38.07242 | 15.65307 | 57 ft | 14 kts | 158° |
| 2026-04-21 17:54 | 38.07139 | 15.65379 | 53 ft | 19 kts | 153° |
| 2026-04-21 17:54 | 38.07012 | 15.65417 | 55 ft | 21 kts | 170° |
| 2026-04-21 17:54 | 38.06861 | 15.65444 | 50 ft | 22 kts | 174° |
| 2026-04-21 17:55 | 38.06724 | 15.65424 | 47 ft | 20 kts | 175° |
| 2026-04-21 17:55 | 38.06579 | 15.65443 | 46 ft | 11 kts | 181° |
| 2026-04-21 17:55 | 38.06558 | 15.65445 | 45 ft | 6 kts | 172° |
| 2026-04-21 17:55 | 38.06520 | 15.65459 | 44 ft | 5 kts | 139° |
| 2026-04-21 17:56 | 38.06490 | 15.65485 | 44 ft | 3 kts | 140° |
| 2026-04-21 17:56 | 38.06480 | 15.65501 | 44 ft | 2 kts | 110° |
| 2026-04-21 17:56 | 38.06478 | 15.65509 | 44 ft | 1 kts | 96° |
| 2026-04-21 17:56 | 38.06483 | 15.65531 | 44 ft | 6 kts | 49° |
| 2026-04-21 17:57 | 38.06579 | 15.65513 | 45 ft | 22 kts | 343° |
| 2026-04-21 17:57 | 38.06620 | 15.65486 | 46 ft | 0 kts | 330° |
| 2026-04-21 18:02 | 38.06716 | 15.65419 | 46 ft | 56 kts | 331° |
| 2026-04-21 18:02 | 38.07367 | 15.64991 | 63 ft | 147 kts | 332° |
| 2026-04-21 18:02 | 38.08380 | 15.64329 | 564 ft | 171 kts | 333° |
| 2026-04-21 18:03 | 38.09455 | 15.63599 | 1318 ft | 178 kts | 330° |
| 2026-04-21 18:03 | 38.10602 | 15.63166 | 2124 ft | 176 kts | 358° |
| 2026-04-21 18:03 | 38.11875 | 15.63359 | 2561 ft | 191 kts | 8° |
| 2026-04-21 18:03 | 38.13282 | 15.63513 | 2979 ft | 214 kts | 10° |
| 2026-04-21 18:04 | 38.14663 | 15.64375 | 3496 ft | 239 kts | 40° |
| 2026-04-21 18:04 | 38.15702 | 15.66149 | 4044 ft | 264 kts | 59° |
| 2026-04-21 18:04 | 38.16538 | 15.68304 | 4787 ft | 276 kts | 63° |
| 2026-04-21 18:04 | 38.17380 | 15.70528 | 5675 ft | 283 kts | 62° |
| 2026-04-21 18:05 | 38.18299 | 15.72769 | 6565 ft | 288 kts | 59° |
| 2026-04-21 18:05 | 38.19282 | 15.75005 | 7471 ft | 292 kts | 58° |
| 2026-04-21 18:05 | 38.20308 | 15.77260 | 8411 ft | 296 kts | 57° |
| 2026-04-21 18:05 | 38.21356 | 15.79526 | 9351 ft | 299 kts | 56° |
| 2026-04-21 18:06 | 38.22420 | 15.81821 | 10216 ft | 304 kts | 56° |
| 2026-04-21 18:06 | 38.23533 | 15.84219 | 10571 ft | 326 kts | 56° |
| 2026-04-21 18:06 | 38.24725 | 15.86792 | 10821 ft | 349 kts | 57° |
| 2026-04-21 18:06 | 38.25974 | 15.89501 | 11395 ft | 358 kts | 57° |
| 2026-04-21 18:07 | 38.27240 | 15.92261 | 12111 ft | 363 kts | 57° |
| 2026-04-21 18:07 | 38.28521 | 15.95055 | 12827 ft | 368 kts | 56° |
| 2026-04-21 18:07 | 38.29821 | 15.97890 | 13577 ft | 372 kts | 56° |
| 2026-04-21 18:07 | 38.31133 | 16.00751 | 14260 ft | 376 kts | 56° |
| 2026-04-21 18:08 | 38.32456 | 16.03637 | 14952 ft | 379 kts | 56° |
| 2026-04-21 18:08 | 38.33790 | 16.06550 | 15632 ft | 382 kts | 56° |
| 2026-04-21 18:08 | 38.35132 | 16.09484 | 16304 ft | 385 kts | 56° |
| 2026-04-21 18:08 | 38.36489 | 16.12449 | 16950 ft | 389 kts | 56° |
| 2026-04-21 18:09 | 38.37854 | 16.15438 | 17603 ft | 392 kts | 56° |
| 2026-04-21 18:09 | 38.39231 | 16.18457 | 18250 ft | 395 kts | 56° |
| 2026-04-21 18:09 | 38.40146 | 16.20465 | 18599 ft | 397 kts | 56° |
| 2026-04-21 18:09 | 38.41995 | 16.24525 | 19296 ft | 401 kts | 56° |
| 2026-04-21 18:10 | 38.43403 | 16.27618 | 19830 ft | 404 kts | 56° |
| 2026-04-21 18:10 | 38.44818 | 16.30732 | 20348 ft | 408 kts | 56° |
| 2026-04-21 18:10 | 38.46246 | 16.33876 | 20869 ft | 411 kts | 56° |
| 2026-04-21 18:10 | 38.47683 | 16.37045 | 21399 ft | 414 kts | 56° |
| 2026-04-21 18:11 | 38.49128 | 16.40235 | 21902 ft | 417 kts | 56° |
| 2026-04-21 18:11 | 38.50584 | 16.43451 | 22397 ft | 420 kts | 56° |
| 2026-04-21 18:11 | 38.52053 | 16.46699 | 22899 ft | 423 kts | 56° |
| 2026-04-21 18:11 | 38.53472 | 16.49838 | 23382 ft | 426 kts | 56° |
| 2026-04-21 18:12 | 38.54542 | 16.52208 | 23724 ft | 428 kts | 56° |
| 2026-04-21 18:12 | 38.56017 | 16.55480 | 24147 ft | 431 kts | 56° |
| 2026-04-21 18:12 | 38.57519 | 16.58812 | 24532 ft | 435 kts | 56° |
| 2026-04-21 18:12 | 38.59033 | 16.62176 | 24962 ft | 438 kts | 56° |
| 2026-04-21 18:13 | 38.60557 | 16.65564 | 25393 ft | 441 kts | 56° |
| 2026-04-21 18:13 | 38.62091 | 16.68980 | 25838 ft | 444 kts | 56° |
| 2026-04-21 18:13 | 38.63634 | 16.72420 | 26303 ft | 447 kts | 56° |
| 2026-04-21 18:13 | 38.65187 | 16.75884 | 26793 ft | 451 kts | 56° |
| 2026-04-21 18:14 | 38.68333 | 16.82915 | 27762 ft | 458 kts | 55° |
| 2026-04-21 18:14 | 38.69920 | 16.86467 | 28270 ft | 462 kts | 55° |
| 2026-04-21 18:14 | 38.71520 | 16.90053 | 28752 ft | 466 kts | 55° |
| 2026-04-21 18:15 | 38.73132 | 16.93669 | 29241 ft | 469 kts | 55° |
| 2026-04-21 18:15 | 38.74757 | 16.97319 | 29747 ft | 473 kts | 55° |
| 2026-04-21 18:15 | 38.76395 | 17.01003 | 30209 ft | 477 kts | 55° |
| 2026-04-21 18:15 | 38.78019 | 17.04660 | 30665 ft | 480 kts | 55° |
| 2026-04-21 18:16 | 38.79684 | 17.08413 | 31100 ft | 484 kts | 55° |
| 2026-04-21 18:16 | 38.81355 | 17.12184 | 31549 ft | 488 kts | 55° |
| 2026-04-21 18:16 | 38.83036 | 17.15982 | 31985 ft | 491 kts | 55° |
| 2026-04-21 18:16 | 38.84727 | 17.19809 | 32394 ft | 495 kts | 55° |
| 2026-04-21 18:17 | 38.86428 | 17.23661 | 32822 ft | 498 kts | 55° |
| 2026-04-21 18:17 | 38.88141 | 17.27547 | 33242 ft | 502 kts | 55° |
| 2026-04-21 18:17 | 38.89866 | 17.31464 | 33667 ft | 506 kts | 55° |
| 2026-04-21 18:17 | 38.91593 | 17.35405 | 34036 ft | 509 kts | 55° |
| 2026-04-21 18:18 | 38.93345 | 17.39394 | 34417 ft | 512 kts | 55° |
| 2026-04-21 18:18 | 38.95081 | 17.43346 | 34846 ft | 514 kts | 55° |
| 2026-04-21 18:18 | 38.96837 | 17.47351 | 35327 ft | 514 kts | 56° |
| 2026-04-21 18:18 | 38.98595 | 17.51368 | 35848 ft | 514 kts | 56° |
| 2026-04-21 18:19 | 39.00346 | 17.55374 | 36358 ft | 514 kts | 56° |
| 2026-04-21 18:19 | 39.02097 | 17.59387 | 36844 ft | 514 kts | 56° |
| 2026-04-21 18:19 | 39.03848 | 17.63404 | 37351 ft | 514 kts | 56° |
| 2026-04-21 18:19 | 39.05592 | 17.67411 | 37832 ft | 513 kts | 56° |
| 2026-04-21 18:20 | 39.07336 | 17.71422 | 38316 ft | 513 kts | 56° |
| 2026-04-21 18:20 | 39.09052 | 17.75451 | 38739 ft | 515 kts | 59° |
| 2026-04-21 18:20 | 39.10517 | 17.79668 | 39110 ft | 518 kts | 65° |
| 2026-04-21 18:20 | 39.11685 | 17.84061 | 39462 ft | 520 kts | 71° |
| 2026-04-21 18:21 | 39.12544 | 17.88598 | 39794 ft | 523 kts | 76° |
| 2026-04-21 18:21 | 39.13230 | 17.93158 | 39910 ft | 529 kts | 76° |
| 2026-04-21 18:21 | 39.13955 | 17.97809 | 39915 ft | 526 kts | 76° |
| 2026-04-21 18:22 | 39.15398 | 18.07039 | 39921 ft | 526 kts | 76° |
| 2026-04-21 18:22 | 39.16829 | 18.16309 | 39923 ft | 527 kts | 76° |
| 2026-04-21 18:23 | 39.18247 | 18.25583 | 39927 ft | 528 kts | 76° |
| 2026-04-21 18:23 | 39.19658 | 18.34863 | 39925 ft | 528 kts | 76° |
| 2026-04-21 18:24 | 39.21063 | 18.44160 | 39926 ft | 528 kts | 76° |
| 2026-04-21 18:24 | 39.22462 | 18.53460 | 39933 ft | 528 kts | 76° |
| 2026-04-21 18:25 | 39.23848 | 18.62732 | 39933 ft | 528 kts | 77° |
| 2026-04-21 18:25 | 39.25231 | 18.72041 | 39938 ft | 528 kts | 77° |
| 2026-04-21 18:26 | 39.26608 | 18.81356 | 39939 ft | 528 kts | 77° |
| 2026-04-21 18:26 | 39.27977 | 18.90679 | 39943 ft | 528 kts | 77° |
| 2026-04-21 18:27 | 39.29109 | 18.98421 | 39947 ft | 528 kts | 77° |
| 2026-04-21 18:27 | 39.30465 | 19.07757 | 39953 ft | 528 kts | 77° |
| 2026-04-21 18:28 | 39.31811 | 19.17097 | 39950 ft | 528 kts | 77° |
| 2026-04-21 18:28 | 39.33151 | 19.26444 | 39951 ft | 528 kts | 77° |
| 2026-04-21 18:29 | 39.34473 | 19.35720 | 39953 ft | 528 kts | 77° |
| 2026-04-21 18:29 | 39.35796 | 19.45061 | 39960 ft | 528 kts | 77° |
| 2026-04-21 18:30 | 39.37114 | 19.54413 | 39968 ft | 528 kts | 77° |
| 2026-04-21 18:30 | 39.38421 | 19.63751 | 39962 ft | 528 kts | 77° |
| 2026-04-21 18:31 | 39.39702 | 19.73102 | 39971 ft | 528 kts | 78° |
| 2026-04-21 18:31 | 39.40983 | 19.82443 | 39969 ft | 528 kts | 78° |
| 2026-04-21 18:32 | 39.42278 | 19.91814 | 39965 ft | 528 kts | 78° |
| 2026-04-21 18:32 | 39.43560 | 20.01151 | 39968 ft | 528 kts | 77° |
| 2026-04-21 18:33 | 39.45514 | 20.10239 | 39972 ft | 524 kts | 66° |
| 2026-04-21 18:33 | 39.48414 | 20.18855 | 39970 ft | 523 kts | 63° |
| 2026-04-21 18:34 | 39.51389 | 20.27499 | 39973 ft | 523 kts | 63° |
| 2026-04-21 18:34 | 39.54336 | 20.36092 | 39978 ft | 524 kts | 63° |
| 2026-04-21 18:35 | 39.57285 | 20.44700 | 39986 ft | 524 kts | 63° |
| 2026-04-21 18:35 | 39.60239 | 20.53343 | 40002 ft | 525 kts | 63° |
| 2026-04-21 18:36 | 39.63185 | 20.61991 | 40014 ft | 525 kts | 63° |
| 2026-04-21 18:36 | 39.66124 | 20.70647 | 39990 ft | 525 kts | 63° |
| 2026-04-21 18:37 | 39.69070 | 20.79347 | 39997 ft | 525 kts | 63° |
| 2026-04-21 18:37 | 39.72074 | 20.88000 | 39996 ft | 525 kts | 62° |
| 2026-04-21 18:38 | 39.75194 | 20.96492 | 39993 ft | 524 kts | 61° |
| 2026-04-21 18:38 | 39.78324 | 21.05094 | 39991 ft | 525 kts | 62° |
| 2026-04-21 18:39 | 39.81407 | 21.13644 | 39991 ft | 525 kts | 62° |
| 2026-04-21 18:39 | 39.84500 | 21.22258 | 39989 ft | 525 kts | 62° |
| 2026-04-21 18:40 | 39.87590 | 21.30887 | 39987 ft | 526 kts | 62° |
| 2026-04-21 18:40 | 39.90156 | 21.38073 | 39980 ft | 526 kts | 62° |
| 2026-04-21 18:41 | 39.93753 | 21.48177 | 39969 ft | 526 kts | 62° |
| 2026-04-21 18:41 | 39.96823 | 21.56826 | 39972 ft | 525 kts | 62° |
| 2026-04-21 18:42 | 39.99886 | 21.65406 | 39966 ft | 524 kts | 62° |
| 2026-04-21 18:42 | 40.02968 | 21.74049 | 39972 ft | 524 kts | 62° |
| 2026-04-21 18:43 | 40.06032 | 21.82677 | 39966 ft | 524 kts | 62° |
| 2026-04-21 18:43 | 40.09075 | 21.91276 | 39965 ft | 523 kts | 62° |
| 2026-04-21 18:44 | 40.12123 | 21.99915 | 39967 ft | 523 kts | 62° |
| 2026-04-21 18:44 | 40.15102 | 22.08590 | 39970 ft | 524 kts | 63° |
| 2026-04-21 18:45 | 40.18048 | 22.17302 | 39969 ft | 523 kts | 63° |
| 2026-04-21 18:45 | 40.20994 | 22.26006 | 39970 ft | 523 kts | 63° |
| 2026-04-21 18:46 | 40.23945 | 22.34737 | 39971 ft | 524 kts | 63° |
| 2026-04-21 18:46 | 40.26872 | 22.43423 | 39970 ft | 524 kts | 63° |
| 2026-04-21 18:47 | 40.29810 | 22.52163 | 39971 ft | 524 kts | 63° |
| 2026-04-21 18:47 | 40.32809 | 22.60902 | 39965 ft | 525 kts | 63° |
| 2026-04-21 18:48 | 40.34814 | 22.66773 | 39960 ft | 525 kts | 63° |
| 2026-04-21 18:48 | 40.37775 | 22.75538 | 39954 ft | 526 kts | 63° |
| 2026-04-21 18:49 | 40.40719 | 22.84286 | 39948 ft | 526 kts | 63° |
| 2026-04-21 18:49 | 40.43177 | 22.91608 | 39944 ft | 527 kts | 63° |
| 2026-04-21 18:50 | 40.46066 | 23.02212 | 39943 ft | 531 kts | 73° |
| 2026-04-21 18:50 | 40.47511 | 23.11679 | 39949 ft | 532 kts | 77° |
| 2026-04-21 18:51 | 40.48926 | 23.21251 | 39955 ft | 532 kts | 77° |
| 2026-04-21 18:51 | 40.50320 | 23.30777 | 39963 ft | 532 kts | 77° |
| 2026-04-21 18:52 | 40.51702 | 23.40333 | 39966 ft | 532 kts | 77° |
| 2026-04-21 18:52 | 40.53071 | 23.49871 | 39961 ft | 532 kts | 77° |
| 2026-04-21 18:53 | 40.54433 | 23.59431 | 39966 ft | 532 kts | 77° |
| 2026-04-21 18:53 | 40.55792 | 23.69031 | 39962 ft | 533 kts | 77° |
| 2026-04-21 18:54 | 40.57128 | 23.78527 | 39964 ft | 533 kts | 78° |
| 2026-04-21 18:54 | 40.58468 | 23.88113 | 39965 ft | 533 kts | 78° |
| 2026-04-21 18:55 | 40.59612 | 23.96068 | 39956 ft | 532 kts | 75° |
| 2026-04-21 18:55 | 40.62063 | 24.06888 | 39954 ft | 530 kts | 70° |
| 2026-04-21 18:56 | 40.64247 | 24.16201 | 39958 ft | 530 kts | 70° |
| 2026-04-21 18:56 | 40.66411 | 24.25476 | 39958 ft | 531 kts | 70° |
| 2026-04-21 18:57 | 40.68565 | 24.34733 | 39956 ft | 531 kts | 70° |
| 2026-04-21 18:57 | 40.70725 | 24.44050 | 39953 ft | 531 kts | 70° |
| 2026-04-21 18:58 | 40.72884 | 24.53401 | 39938 ft | 531 kts | 71° |
| 2026-04-21 18:58 | 40.75026 | 24.62719 | 39951 ft | 532 kts | 71° |
| 2026-04-21 18:59 | 40.77162 | 24.72048 | 39955 ft | 532 kts | 71° |
| 2026-04-21 18:59 | 40.79282 | 24.81335 | 39963 ft | 532 kts | 71° |
| 2026-04-21 19:00 | 40.81420 | 24.90734 | 39955 ft | 532 kts | 71° |
| 2026-04-21 19:00 | 40.83534 | 25.00071 | 39967 ft | 532 kts | 71° |
| 2026-04-21 19:01 | 40.85647 | 25.09442 | 39981 ft | 532 kts | 71° |
| 2026-04-21 19:01 | 40.87738 | 25.18758 | 39987 ft | 532 kts | 71° |
| 2026-04-21 19:02 | 40.89840 | 25.28162 | 39986 ft | 531 kts | 71° |
| 2026-04-21 19:02 | 40.91915 | 25.37475 | 39990 ft | 531 kts | 71° |
| 2026-04-21 19:03 | 40.93525 | 25.44717 | 39989 ft | 531 kts | 71° |
| 2026-04-21 19:03 | 40.95602 | 25.54099 | 39983 ft | 531 kts | 71° |
| 2026-04-21 19:04 | 40.97675 | 25.63500 | 39977 ft | 531 kts | 71° |
| 2026-04-21 19:04 | 40.99741 | 25.72913 | 39979 ft | 532 kts | 71° |
| 2026-04-21 19:05 | 41.01785 | 25.82269 | 39979 ft | 532 kts | 71° |
| 2026-04-21 19:05 | 41.03834 | 25.91686 | 39977 ft | 532 kts | 71° |
| 2026-04-21 19:06 | 41.05876 | 26.01113 | 39977 ft | 532 kts | 71° |
| 2026-04-21 19:06 | 41.07910 | 26.10545 | 39983 ft | 532 kts | 72° |
| 2026-04-21 19:07 | 41.09935 | 26.19973 | 39986 ft | 532 kts | 72° |
| 2026-04-21 19:07 | 41.11185 | 26.29631 | 39878 ft | 533 kts | 89° |
| 2026-04-21 19:07 | 41.10959 | 26.34512 | 39650 ft | 529 kts | 98° |
| 2026-04-21 19:08 | 41.10176 | 26.39259 | 39418 ft | 527 kts | 108° |
| 2026-04-21 19:08 | 41.08877 | 26.43799 | 39200 ft | 526 kts | 115° |
| 2026-04-21 19:08 | 41.07451 | 26.48279 | 38972 ft | 528 kts | 114° |
| 2026-04-21 19:08 | 41.06061 | 26.52720 | 38606 ft | 528 kts | 114° |
| 2026-04-21 19:09 | 41.04721 | 26.57259 | 37800 ft | 530 kts | 109° |
| 2026-04-21 19:09 | 41.03713 | 26.61997 | 36839 ft | 534 kts | 103° |
| 2026-04-21 19:09 | 41.03102 | 26.66857 | 36023 ft | 535 kts | 96° |
| 2026-04-21 19:09 | 41.02816 | 26.71763 | 35383 ft | 532 kts | 93° |
| 2026-04-21 19:10 | 41.02548 | 26.76614 | 34478 ft | 534 kts | 94° |
| 2026-04-21 19:10 | 41.02259 | 26.81536 | 33526 ft | 537 kts | 94° |
| 2026-04-21 19:10 | 41.01963 | 26.86453 | 32820 ft | 533 kts | 94° |
| 2026-04-21 19:10 | 41.01669 | 26.91303 | 32418 ft | 522 kts | 94° |
| 2026-04-21 19:11 | 41.01380 | 26.96061 | 31820 ft | 516 kts | 94° |
| 2026-04-21 19:11 | 41.01091 | 27.00782 | 31207 ft | 512 kts | 94° |
| 2026-04-21 19:11 | 41.00804 | 27.05470 | 30605 ft | 508 kts | 94° |
| 2026-04-21 19:11 | 41.00517 | 27.10118 | 29968 ft | 504 kts | 94° |
| 2026-04-21 19:12 | 41.00328 | 27.13174 | 29514 ft | 501 kts | 94° |
| 2026-04-21 19:12 | 40.99946 | 27.19276 | 28715 ft | 493 kts | 94° |
| 2026-04-21 19:12 | 40.99665 | 27.23742 | 28095 ft | 488 kts | 95° |
| 2026-04-21 19:12 | 40.99383 | 27.28193 | 27495 ft | 483 kts | 95° |
| 2026-04-21 19:13 | 40.99103 | 27.32597 | 26891 ft | 478 kts | 95° |
| 2026-04-21 19:13 | 40.98822 | 27.36972 | 26282 ft | 474 kts | 95° |
| 2026-04-21 19:13 | 40.98544 | 27.41293 | 25681 ft | 469 kts | 95° |
| 2026-04-21 19:13 | 40.98267 | 27.45571 | 25084 ft | 465 kts | 95° |
| 2026-04-21 19:14 | 40.97993 | 27.49772 | 24490 ft | 461 kts | 95° |
| 2026-04-21 19:14 | 40.97716 | 27.53983 | 23883 ft | 457 kts | 95° |
| 2026-04-21 19:14 | 40.97440 | 27.58167 | 23229 ft | 454 kts | 95° |
| 2026-04-21 19:14 | 40.97166 | 27.62306 | 22621 ft | 448 kts | 95° |
| 2026-04-21 19:15 | 40.96893 | 27.66394 | 21997 ft | 443 kts | 95° |
| 2026-04-21 19:15 | 40.96622 | 27.70434 | 21356 ft | 438 kts | 95° |
| 2026-04-21 19:15 | 40.96356 | 27.74386 | 20744 ft | 434 kts | 95° |
| 2026-04-21 19:15 | 40.96088 | 27.78347 | 20107 ft | 431 kts | 95° |
| 2026-04-21 19:16 | 40.95820 | 27.82284 | 19487 ft | 427 kts | 95° |
| 2026-04-21 19:16 | 40.95552 | 27.86199 | 18845 ft | 424 kts | 95° |
| 2026-04-21 19:16 | 40.95285 | 27.90072 | 18198 ft | 422 kts | 95° |
| 2026-04-21 19:16 | 40.95020 | 27.93922 | 17532 ft | 417 kts | 95° |
| 2026-04-21 19:17 | 40.94540 | 28.00813 | 16397 ft | 408 kts | 95° |
| 2026-04-21 19:17 | 40.94367 | 28.03289 | 15981 ft | 405 kts | 95° |
| 2026-04-21 19:17 | 40.94108 | 28.06979 | 15370 ft | 401 kts | 95° |
| 2026-04-21 19:18 | 40.93849 | 28.10639 | 14765 ft | 397 kts | 95° |
| 2026-04-21 19:18 | 40.93622 | 28.13850 | 14267 ft | 393 kts | 95° |
| 2026-04-21 19:18 | 40.93450 | 28.16258 | 14082 ft | 385 kts | 95° |
| 2026-04-21 19:18 | 40.93201 | 28.19753 | 13991 ft | 380 kts | 95° |
| 2026-04-21 19:19 | 40.92951 | 28.23235 | 13978 ft | 380 kts | 95° |
| 2026-04-21 19:19 | 40.92704 | 28.26669 | 13985 ft | 380 kts | 95° |
| 2026-04-21 19:19 | 40.92451 | 28.30160 | 13958 ft | 379 kts | 95° |
| 2026-04-21 19:19 | 40.92310 | 28.32106 | 13817 ft | 377 kts | 95° |
| 2026-04-21 19:20 | 40.92059 | 28.35554 | 13362 ft | 376 kts | 96° |
| 2026-04-21 19:20 | 40.91808 | 28.38988 | 12756 ft | 373 kts | 96° |
| 2026-04-21 19:20 | 40.91559 | 28.42388 | 12159 ft | 370 kts | 96° |
| 2026-04-21 19:20 | 40.91310 | 28.45764 | 11616 ft | 367 kts | 96° |
| 2026-04-21 19:21 | 40.91062 | 28.49113 | 11037 ft | 364 kts | 96° |
| 2026-04-21 19:21 | 40.90816 | 28.52433 | 10493 ft | 361 kts | 96° |
| 2026-04-21 19:21 | 40.90574 | 28.55680 | 10310 ft | 347 kts | 96° |
| 2026-04-21 19:21 | 40.90344 | 28.58758 | 10176 ft | 334 kts | 96° |
| 2026-04-21 19:22 | 40.90119 | 28.61753 | 10038 ft | 321 kts | 96° |
| 2026-04-21 19:22 | 40.89901 | 28.64646 | 9779 ft | 314 kts | 96° |
| 2026-04-21 19:22 | 40.89684 | 28.67508 | 9365 ft | 312 kts | 96° |
| 2026-04-21 19:22 | 40.89468 | 28.70354 | 8949 ft | 310 kts | 96° |
| 2026-04-21 19:23 | 40.89252 | 28.73186 | 8567 ft | 310 kts | 96° |
| 2026-04-21 19:23 | 40.88981 | 28.76008 | 8178 ft | 307 kts | 105° |
| 2026-04-21 19:23 | 40.88092 | 28.78526 | 7813 ft | 302 kts | 126° |
| 2026-04-21 19:23 | 40.86943 | 28.80856 | 7435 ft | 301 kts | 126° |
| 2026-04-21 19:24 | 40.85813 | 28.83169 | 7079 ft | 298 kts | 126° |
| 2026-04-21 19:24 | 40.84693 | 28.85469 | 6718 ft | 297 kts | 126° |
| 2026-04-21 19:24 | 40.83580 | 28.87757 | 6378 ft | 294 kts | 126° |
| 2026-04-21 19:24 | 40.82492 | 28.89990 | 6009 ft | 292 kts | 126° |
| 2026-04-21 19:25 | 40.81392 | 28.92230 | 5648 ft | 289 kts | 126° |
| 2026-04-21 19:25 | 40.80296 | 28.94442 | 5306 ft | 287 kts | 126° |
| 2026-04-21 19:25 | 40.79403 | 28.96776 | 4917 ft | 288 kts | 106° |
| 2026-04-21 19:25 | 40.79307 | 28.99403 | 4470 ft | 288 kts | 78° |
| 2026-04-21 19:26 | 40.80060 | 29.01798 | 4171 ft | 280 kts | 57° |
| 2026-04-21 19:26 | 40.81191 | 29.03878 | 3770 ft | 278 kts | 51° |
| 2026-04-21 19:26 | 40.82385 | 29.05864 | 3445 ft | 274 kts | 50° |
| 2026-04-21 19:26 | 40.83572 | 29.07800 | 3168 ft | 267 kts | 51° |
| 2026-04-21 19:27 | 40.84680 | 29.09708 | 2691 ft | 260 kts | 57° |
| 2026-04-21 19:27 | 40.85439 | 29.11834 | 2405 ft | 250 kts | 73° |
| 2026-04-21 19:27 | 40.85771 | 29.14017 | 2298 ft | 236 kts | 84° |
| 2026-04-21 19:27 | 40.85827 | 29.16116 | 2193 ft | 223 kts | 90° |
| 2026-04-21 19:28 | 40.85745 | 29.18102 | 2088 ft | 210 kts | 92° |
| 2026-04-21 19:28 | 40.85867 | 29.19914 | 1975 ft | 182 kts | 74° |
| 2026-04-21 19:28 | 40.86313 | 29.21275 | 1780 ft | 147 kts | 63° |
| 2026-04-21 19:28 | 40.86749 | 29.22395 | 1486 ft | 131 kts | 63° |
| 2026-04-21 19:29 | 40.87136 | 29.23454 | 1123 ft | 124 kts | 65° |
| 2026-04-21 19:29 | 40.87505 | 29.24494 | 924 ft | 124 kts | 63° |
| 2026-04-21 19:29 | 40.87872 | 29.25521 | 851 ft | 124 kts | 62° |
| 2026-04-21 19:29 | 40.88249 | 29.26548 | 755 ft | 124 kts | 62° |
| 2026-04-21 19:30 | 40.88632 | 29.27586 | 606 ft | 125 kts | 61° |
| 2026-04-21 19:30 | 40.89010 | 29.28631 | 418 ft | 125 kts | 62° |
| 2026-04-21 19:30 | 40.89388 | 29.29653 | 323 ft | 120 kts | 62° |